Weather History for Bartow, FL

Change the Weather History Date:

Tuesday, March 12, 2013

  Actual Average Record
Temperature  
Mean Temperature 62 °F -  
Max Temperature 69 °F 79 °F 91 °F (1963)
Min Temperature 55 °F 55 °F 34 °F (1934)
Degree Days  
Heating Degree Days 3    
Growing Degree Days 12 (Base 50)    
Moisture  
Dew Point 60 °F    
Average Humidity 86    
Maximum Humidity 100    
Minimum Humidity 68    
Precipitation  
Precipitation 0.11 in - - ()
Sea Level Pressure  
Sea Level Pressure 29.96 in    
Wind  
Wind Speed 10 mph (SSW)    
Max Wind Speed 16 mph    
Max Gust Speed 22 mph    
Visibility 8 miles    
Events Rain    
Averages and records for this station are not official NWS values.
T = Trace of Precipitation, MM = Missing Value Source: NWS Daily Summary

Daily Weather History Graph

Daily Weather History Graph

Search for Another Location

Airport:

Trip Planner

Search our weather history database for the weather conditions in past years. The results will help you decide how hot, cold, wet, or windy it might be!

Date:

Astronomy

Mar. 12, 2013 Rise Set
Actual Time 7:39 AM EDT 7:34 PM EDT
Civil Twilight 7:16 AM EDT 7:57 PM EDT
Nautical Twilight 6:49 AM EDT 8:24 PM EDT
Astronomical Twilight 6:21 AM EDT 8:52 PM EDT
Moon 7:53 AM EDT (3/12) 8:37 PM EDT (3/12)
Length of Visible Light 12h 41m
Length of Day
11h 54m
New Moon, 1% of the Moon is Illuminated
Mar 12
New Moon
Mar 19
First Quarter
Mar 27
Full
Apr 3
Last Quarter
Apr 10
New

Hourly Weather History & Observations

Time (EDT) Temp. Dew Point Humidity Pressure Visibility Wind Dir Wind Speed Gust Speed Precip Events Conditions
12:15 AM 66.2 °F 55.4 °F 68% 29.95 in 10.0 mi SE 9.2 mph - N/A   Clear
12:35 AM 66.2 °F 55.4 °F 68% 29.94 in 10.0 mi SE 8.1 mph - N/A   Clear
12:55 AM 66.2 °F 57.2 °F 73% 29.94 in 10.0 mi SSE 9.2 mph - N/A   Clear
1:15 AM 66.2 °F 57.2 °F 73% 29.95 in 10.0 mi SSE 10.4 mph - N/A   Clear
1:35 AM 66.2 °F 57.2 °F 73% 29.95 in 9.0 mi SSE 8.1 mph - N/A   Clear
1:55 AM 66.2 °F 59.0 °F 78% 29.94 in 9.0 mi SSE 6.9 mph - N/A   Clear
2:15 AM 66.2 °F 59.0 °F 78% 29.96 in 10.0 mi South 6.9 mph - N/A   Clear
2:35 AM 66.2 °F 59.0 °F 78% 29.97 in 10.0 mi South 8.1 mph - N/A   Clear
2:55 AM 66.2 °F 59.0 °F 78% 29.96 in 9.0 mi South 8.1 mph - N/A   Clear
3:15 AM 66.2 °F 59.0 °F 78% 29.94 in 9.0 mi SSE 9.2 mph - N/A   Clear
3:35 AM 66.2 °F 59.0 °F 78% 29.94 in 10.0 mi SSE 10.4 mph - N/A   Clear
3:55 AM 66.2 °F 59.0 °F 78% 29.93 in 10.0 mi SSE 12.7 mph 18.4 mph N/A   Clear
4:15 AM 64.4 °F 60.8 °F 88% 29.92 in 9.0 mi SSE 12.7 mph 17.3 mph N/A   Clear
4:35 AM 64.4 °F 60.8 °F 88% 29.92 in 9.0 mi SSE 9.2 mph - N/A   Clear
4:55 AM 64.4 °F 60.8 °F 88% 29.91 in 10.0 mi SSE 15.0 mph - N/A   Clear
5:15 AM 64.4 °F 60.8 °F 88% 29.91 in 10.0 mi SSE 11.5 mph - N/A   Clear
5:35 AM 64.4 °F 60.8 °F 88% 29.91 in 10.0 mi SSE 10.4 mph - N/A   Clear
5:55 AM 64.4 °F 60.8 °F 88% 29.92 in 8.0 mi SSE 10.4 mph - N/A   Clear
6:15 AM 64.4 °F 60.8 °F 88% 29.92 in 9.0 mi SSE 9.2 mph - N/A   Partly Cloudy
6:35 AM 64.4 °F 60.8 °F 88% 29.92 in 9.0 mi South 9.2 mph - N/A   Partly Cloudy
6:55 AM 64.4 °F 62.6 °F 94% 29.91 in 8.0 mi SSE 8.1 mph - N/A   Partly Cloudy
7:15 AM 64.4 °F 62.6 °F 94% 29.92 in 10.0 mi SSE 9.2 mph - N/A   Mostly Cloudy
7:35 AM 64.4 °F 62.6 °F 94% 29.92 in 10.0 mi SSE 9.2 mph - N/A   Overcast
7:55 AM 64.4 °F 62.6 °F 94% 29.93 in 10.0 mi South 10.4 mph - N/A   Overcast
8:15 AM 64.4 °F 62.6 °F 94% 29.93 in 2.5 mi South 10.4 mph - N/A Rain Light Rain
8:35 AM 64.4 °F 64.4 °F 100% 29.95 in 3.0 mi SSE 9.2 mph - 0.04 in Rain Light Rain
8:55 AM 64.4 °F 64.4 °F 100% 29.96 in 2.5 mi South 9.2 mph - 0.05 in Rain Light Rain
9:15 AM 64.4 °F 64.4 °F 100% 29.96 in 1.8 mi South 6.9 mph - 0.01 in Rain Light Rain
9:35 AM 64.4 °F 64.4 °F 100% 29.96 in - SSE 8.1 mph - N/A Rain Light Rain
9:55 AM 64.4 °F 64.4 °F 100% 29.96 in 1.0 mi SSE 9.2 mph - 0.02 in   Overcast
10:15 AM 64.4 °F 64.4 °F 100% 29.97 in 0.8 mi SSE 10.4 mph - 0.04 in Rain Light Rain
10:35 AM 64.4 °F 64.4 °F 100% 29.97 in 1.8 mi South 12.7 mph - 0.04 in   Overcast
10:55 AM 64.4 °F 64.4 °F 100% 29.96 in 5.0 mi South 12.7 mph - 0.04 in   Overcast
11:15 AM 64.4 °F - N/A% 29.97 in 5.0 mi South 11.5 mph 20.7 mph N/A   Haze
11:35 AM 66.2 °F 66.2 °F 100% 29.97 in 7.0 mi South 13.8 mph 18.4 mph N/A   Overcast
11:55 AM 66.2 °F 66.2 °F 100% 29.97 in 7.0 mi South 11.5 mph - N/A   Overcast
12:15 PM 68.0 °F 68.0 °F 100% 29.97 in 8.0 mi South 13.8 mph - N/A   Overcast
12:55 PM 69.8 °F 66.2 °F 88% 29.97 in 8.0 mi SSW 13.8 mph - N/A   Overcast
1:15 PM 69.8 °F 66.2 °F 88% 29.96 in 9.0 mi SSW 15.0 mph 21.9 mph N/A   Overcast
1:35 PM 68.0 °F 68.0 °F 100% 29.96 in 1.5 mi SSW 16.1 mph 20.7 mph N/A Rain Light Rain
1:55 PM 66.2 °F 66.2 °F 100% 29.96 in 1.2 mi WSW 11.5 mph - N/A   Overcast
2:15 PM 64.4 °F 64.4 °F 100% 29.96 in 4.0 mi West 9.2 mph - N/A   Overcast
2:35 PM 64.4 °F 64.4 °F 100% 29.96 in 8.0 mi West 12.7 mph - N/A   Overcast
2:55 PM 64.4 °F 64.4 °F 100% 29.95 in 4.0 mi WNW 10.4 mph - N/A   Overcast
3:15 PM 62.6 °F 62.6 °F 100% 29.95 in 6.0 mi WNW 6.9 mph - N/A   Overcast
3:35 PM 62.6 °F 62.6 °F 100% 29.95 in 10.0 mi West 6.9 mph - N/A   Overcast
3:55 PM 64.4 °F 62.6 °F 94% 29.95 in 8.0 mi WSW 6.9 mph - N/A   Overcast
4:15 PM 66.2 °F 62.6 °F 88% 29.94 in 10.0 mi WSW 4.6 mph - N/A   Overcast
4:35 PM 66.2 °F 62.6 °F 88% 29.95 in 9.0 mi WSW 8.1 mph - N/A   Overcast
4:55 PM 68.0 °F 60.8 °F 78% 29.94 in 9.0 mi SW 12.7 mph - N/A   Mostly Cloudy
5:15 PM 68.0 °F 60.8 °F 78% 29.94 in 7.0 mi WSW 11.5 mph - N/A   Scattered Clouds
5:35 PM 68.0 °F 60.8 °F 78% 29.94 in 8.0 mi WSW 11.5 mph - N/A   Mostly Cloudy
5:55 PM 68.0 °F 59.0 °F 73% 29.95 in 8.0 mi West 11.5 mph - N/A   Mostly Cloudy
6:15 PM 66.2 °F 57.2 °F 73% 29.95 in 7.0 mi West 10.4 mph - N/A   Partly Cloudy
6:35 PM 66.2 °F 57.2 °F 73% 29.95 in 7.0 mi West 10.4 mph - N/A   Clear
6:55 PM 64.4 °F 55.4 °F 73% 29.96 in 8.0 mi West 9.2 mph - N/A   Clear
7:15 PM 64.4 °F 53.6 °F 68% 29.97 in 8.0 mi West 9.2 mph - N/A   Clear
7:35 PM 62.6 °F 55.4 °F 77% 29.97 in 8.0 mi West 6.9 mph - N/A   Clear
7:55 PM 62.6 °F 53.6 °F 72% 29.98 in 10.0 mi West 8.1 mph - N/A   Clear
8:15 PM 62.6 °F 53.6 °F 72% 29.99 in 10.0 mi West 11.5 mph - N/A   Clear
8:35 PM 60.8 °F 53.6 °F 77% 30.00 in 10.0 mi West 9.2 mph - N/A   Clear
8:55 PM 60.8 °F 51.8 °F 72% 30.01 in 10.0 mi WNW 9.2 mph - N/A   Clear
9:15 PM 59.0 °F 51.8 °F 77% 30.01 in 10.0 mi WNW 6.9 mph - N/A   Clear
9:35 PM 57.2 °F 51.8 °F 82% 30.02 in 10.0 mi WNW 6.9 mph - N/A   Clear
9:55 PM 57.2 °F 51.8 °F 82% 30.04 in 9.0 mi WNW 9.2 mph - N/A   Clear
10:15 PM 57.2 °F 51.8 °F 82% 30.04 in 10.0 mi WNW 9.2 mph - N/A   Clear
10:35 PM 57.2 °F 51.8 °F 82% 30.05 in 10.0 mi WNW 6.9 mph - N/A   Clear
10:55 PM 55.4 °F 51.8 °F 88% 30.05 in 10.0 mi WNW 10.4 mph - N/A   Clear
11:15 PM 55.4 °F 51.8 °F 88% 30.05 in 10.0 mi WNW 6.9 mph - N/A   Clear
11:35 PM 55.4 °F 51.8 °F 88% 30.06 in 10.0 mi WNW 6.9 mph - N/A   Clear
11:55 PM 55.4 °F 51.8 °F 88% 30.06 in 10.0 mi WNW 9.2 mph - N/A   Clear